createdAt,value
2019-05-10T00:02:41.414Z,5.33
2019-05-10T00:05:29.596Z,6.37
2019-05-10T00:08:17.812Z,5.67
2019-05-10T00:16:17.015Z,6.00
2019-05-10T00:18:46.265Z,7.07
2019-05-10T00:21:34.600Z,7.17
2019-05-10T00:24:03.875Z,8.47
2019-05-10T00:26:33.174Z,6.33
2019-05-10T00:29:02.530Z,8.37
2019-05-10T00:31:31.773Z,5.63
2019-05-10T00:34:01.085Z,8.87
2019-05-10T00:36:30.416Z,6.87
2019-05-10T00:38:59.710Z,6.10
2019-05-10T00:41:29.002Z,6.67
2019-05-10T00:43:58.302Z,6.23
2019-05-10T00:46:27.577Z,7.23
2019-05-10T00:48:56.856Z,7.07
2019-05-10T00:51:26.132Z,8.97
2019-05-10T00:53:55.421Z,9.67
2019-05-10T00:56:24.701Z,8.40
2019-05-10T00:59:05.144Z,7.87
2019-05-10T01:01:46.334Z,8.57
2019-05-10T01:04:15.614Z,10.50
2019-05-10T01:07:03.994Z,8.77
2019-05-10T01:12:40.571Z,11.13
2019-05-10T01:18:10.775Z,8.73
2019-05-10T01:20:40.060Z,9.67
2019-05-10T01:23:09.364Z,10.43
2019-05-10T01:25:49.998Z,8.10
2019-05-10T01:28:19.290Z,14.53
2019-05-10T01:30:48.665Z,10.00
2019-05-10T01:33:17.921Z,11.93
2019-05-10T01:35:47.206Z,9.43
2019-05-10T01:38:16.510Z,13.30
2019-05-10T01:40:45.794Z,10.53
2019-05-10T01:43:15.090Z,13.53
2019-05-10T01:45:44.379Z,16.03
2019-05-10T01:48:13.715Z,11.70
2019-05-10T01:50:43.599Z,13.00
2019-05-10T01:53:12.860Z,11.83
2019-05-10T01:55:51.787Z,13.43
2019-05-10T01:58:13.150Z,12.40
2019-05-10T02:00:42.481Z,13.50
2019-05-10T02:03:11.760Z,14.40
2019-05-10T02:05:41.042Z,14.63
2019-05-10T02:08:10.332Z,12.20
2019-05-10T02:10:39.925Z,10.80
2019-05-10T02:13:09.303Z,11.40
2019-05-10T02:18:13.902Z,11.77
2019-05-10T02:20:43.227Z,13.87
2019-05-10T02:23:12.462Z,12.17
2019-05-10T02:25:41.757Z,12.03
2019-05-10T02:28:11.042Z,16.60
2019-05-10T02:30:40.340Z,12.77
2019-05-10T02:33:09.614Z,15.00
2019-05-10T02:35:38.889Z,18.07
2019-05-10T02:38:08.176Z,12.43
2019-05-10T02:40:37.453Z,17.37
2019-05-10T02:43:06.737Z,10.77
2019-05-10T02:45:36.061Z,15.90
2019-05-10T02:48:05.446Z,15.87
2019-05-10T02:50:34.817Z,13.33
2019-05-10T02:53:04.199Z,15.13
2019-05-10T02:56:29.149Z,13.00
2019-05-10T03:04:40.728Z,17.30
2019-05-10T03:07:10.007Z,14.93
2019-05-10T03:09:39.289Z,13.80
2019-05-10T03:12:27.662Z,16.93
2019-05-10T03:15:36.813Z,14.90
2019-05-10T03:18:45.426Z,18.30
2019-05-10T03:24:28.889Z,11.87
2019-05-10T03:26:58.174Z,11.13
2019-05-10T03:29:27.568Z,12.23
2019-05-10T03:31:56.993Z,12.47
2019-05-10T03:34:26.288Z,12.50
2019-05-10T03:36:55.554Z,14.17
2019-05-10T03:39:24.862Z,17.47
2019-05-10T03:41:54.136Z,13.80
2019-05-10T03:44:23.407Z,14.40
2019-05-10T03:49:27.490Z,13.00
2019-05-10T03:51:56.831Z,14.13
2019-05-10T03:54:26.113Z,15.70
2019-05-10T03:57:12.289Z,17.60
2019-05-10T03:59:26.404Z,11.77
2019-05-10T04:01:55.695Z,16.33
2019-05-10T04:04:44.037Z,12.93
2019-05-10T04:07:13.309Z,16.40
2019-05-10T04:09:42.611Z,10.20
2019-05-10T04:12:11.894Z,15.10
2019-05-10T04:14:41.166Z,14.70
2019-05-10T04:17:29.413Z,13.03
2019-05-10T04:19:58.699Z,14.00
2019-05-10T04:22:27.983Z,13.07
2019-05-10T04:24:57.266Z,13.33
2019-05-10T04:27:32.491Z,14.77
2019-05-10T04:29:57.556Z,14.20
2019-05-10T04:32:26.840Z,14.27
2019-05-10T04:34:56.144Z,10.83
2019-05-10T04:37:25.433Z,14.40
2019-05-10T04:40:14.026Z,13.63
2019-05-10T04:42:43.345Z,15.43
2019-05-10T04:45:51.937Z,16.77
2019-05-10T04:48:21.247Z,15.00
2019-05-10T04:50:50.527Z,10.33
2019-05-10T04:53:19.825Z,15.83
2019-05-10T04:55:49.095Z,13.13
2019-05-10T04:58:18.397Z,15.33
2019-05-10T05:01:06.792Z,17.73
2019-05-10T05:03:36.038Z,11.47
2019-05-10T05:06:05.353Z,16.13
2019-05-10T05:08:34.642Z,12.57
2019-05-10T05:11:03.940Z,17.97
2019-05-10T05:13:33.227Z,13.73
2019-05-10T05:16:02.502Z,12.00
2019-05-10T05:18:31.841Z,13.37
2019-05-10T05:21:20.093Z,13.97
2019-05-10T05:24:08.326Z,9.97
2019-05-10T05:26:37.632Z,12.43
2019-05-10T05:29:06.935Z,9.17
2019-05-10T05:34:24.495Z,10.67
2019-05-10T05:36:53.806Z,8.73
2019-05-10T05:39:23.097Z,11.43
2019-05-10T05:41:56.178Z,8.07
2019-05-10T05:44:26.043Z,8.57
2019-05-10T05:46:54.539Z,10.57
2019-05-10T05:49:23.821Z,8.83
2019-05-10T05:51:53.109Z,9.87
2019-05-10T05:57:17.290Z,8.77
2019-05-10T05:59:49.050Z,8.23
2019-05-10T06:02:17.585Z,10.27
2019-05-10T06:04:47.714Z,11.43
2019-05-10T06:07:17.901Z,9.87
2019-05-10T06:09:47.217Z,12.87
2019-05-10T06:12:16.492Z,8.57
2019-05-10T06:14:49.804Z,9.87
2019-05-10T06:17:16.833Z,8.77
2019-05-10T06:19:46.106Z,8.23
2019-05-10T06:24:55.590Z,8.47
2019-05-10T06:27:24.892Z,8.53
2019-05-10T06:29:54.185Z,7.30
2019-05-10T06:32:23.504Z,8.20
2019-05-10T06:34:52.795Z,7.83
2019-05-10T06:39:57.528Z,6.63
2019-05-10T06:42:28.691Z,9.47
2019-05-10T06:44:57.900Z,7.47
2019-05-10T06:47:27.171Z,5.93
2019-05-10T06:49:59.322Z,8.23
2019-05-10T06:52:29.817Z,6.50
2019-05-10T06:54:59.693Z,7.60
2019-05-10T06:57:29.008Z,5.80
2019-05-10T07:00:17.209Z,6.67
2019-05-10T07:02:46.509Z,6.97
2019-05-10T07:05:16.496Z,6.13
2019-05-10T07:07:46.022Z,5.10
2019-05-10T07:12:50.341Z,7.67
2019-05-10T07:15:42.346Z,7.63
2019-05-10T07:18:11.018Z,5.43
2019-05-10T07:20:43.202Z,6.77
2019-05-10T07:23:11.411Z,8.70
2019-05-10T07:25:43.839Z,4.50
2019-05-10T07:28:15.994Z,7.70
2019-05-10T07:30:42.735Z,8.37
2019-05-10T07:33:12.064Z,6.57
2019-05-10T07:36:02.411Z,8.00
2019-05-10T07:38:32.949Z,8.10
2019-05-10T07:41:02.864Z,6.70
2019-05-10T07:43:32.130Z,6.43
2019-05-10T07:46:20.467Z,5.23
2019-05-10T07:48:53.411Z,5.90
2019-05-10T07:51:22.910Z,6.97
2019-05-10T07:54:10.834Z,4.30
2019-05-10T07:56:45.719Z,4.50
2019-05-10T07:59:16.335Z,9.37
2019-05-10T08:01:42.164Z,5.27
2019-05-10T08:06:51.716Z,4.20
2019-05-10T08:09:19.313Z,3.80
2019-05-10T08:11:54.016Z,5.97
2019-05-10T08:14:20.902Z,4.67
2019-05-10T08:16:58.453Z,5.23
2019-05-10T08:19:21.242Z,5.53
2019-05-10T08:21:56.446Z,3.97
2019-05-10T08:24:22.227Z,6.50
2019-05-10T08:27:11.184Z,5.47
2019-05-10T08:30:17.956Z,6.20
2019-05-10T08:32:29.937Z,4.30
2019-05-10T08:37:52.931Z,9.18
2019-05-10T08:40:28.173Z,7.60
2019-05-10T08:43:03.177Z,7.43
2019-05-10T08:45:23.859Z,4.40
2019-05-10T08:48:01.043Z,7.35
2019-05-10T08:50:42.622Z,4.78
2019-05-10T08:52:56.875Z,6.10
2019-05-10T08:55:26.293Z,5.00
2019-05-10T08:57:55.604Z,4.42
2019-05-10T09:03:18.360Z,6.28
2019-05-10T09:05:44.302Z,5.25
2019-05-10T09:08:19.510Z,4.90
2019-05-10T09:10:44.654Z,5.95
2019-05-10T09:13:14.092Z,6.67
2019-05-10T09:15:51.668Z,6.22
2019-05-10T09:18:14.414Z,6.55
2019-05-10T09:20:43.715Z,9.55
2019-05-10T09:23:18.679Z,10.98
2019-05-10T09:25:44.090Z,11.95
2019-05-10T09:28:16.648Z,13.53
2019-05-10T09:30:56.932Z,14.80
2019-05-10T09:33:15.447Z,11.97
2019-05-10T09:35:51.165Z,12.55
2019-05-10T09:38:39.205Z,12.80
2019-05-10T09:41:05.780Z,13.90
2019-05-10T09:43:42.448Z,13.17
2019-05-10T09:46:06.089Z,13.27
2019-05-10T09:48:35.415Z,13.67
2019-05-10T09:51:04.759Z,10.87
2019-05-10T09:53:34.078Z,13.03
2019-05-10T09:56:03.507Z,11.90
2019-05-10T09:58:32.745Z,11.37
2019-05-10T10:01:13.440Z,10.70
2019-05-10T10:03:39.882Z,8.97
2019-05-10T10:06:07.799Z,10.07
2019-05-10T10:08:35.171Z,9.17
2019-05-10T10:11:14.067Z,13.73
2019-05-10T10:13:43.077Z,10.33
2019-05-10T10:16:25.459Z,11.90
2019-05-10T10:18:54.752Z,8.60
2019-05-10T10:26:48.183Z,8.60
2019-05-10T10:29:18.079Z,10.47
2019-05-10T10:31:54.809Z,12.00
2019-05-10T10:34:18.412Z,12.13
2019-05-10T10:36:47.741Z,11.23
2019-05-10T10:39:17.199Z,8.90
2019-05-10T10:41:49.204Z,9.47
2019-05-10T10:44:19.064Z,10.07
2019-05-10T10:46:48.374Z,8.27
2019-05-10T10:49:17.871Z,9.20
2019-05-10T10:51:47.353Z,8.87
2019-05-10T10:56:51.894Z,9.03
2019-05-10T10:59:21.172Z,7.80
2019-05-10T11:02:16.027Z,6.30
2019-05-10T11:07:11.098Z,6.40
2019-05-10T11:15:03.580Z,8.93
2019-05-10T11:17:32.900Z,8.23
2019-05-10T11:20:02.169Z,8.80
2019-05-10T11:22:31.863Z,9.80
2019-05-10T11:25:09.154Z,9.67
2019-05-10T11:27:33.472Z,11.03
2019-05-10T11:30:02.764Z,9.47
2019-05-10T11:32:32.033Z,9.70
2019-05-10T11:35:01.302Z,8.15
2019-05-10T11:37:45.525Z,7.57
2019-05-10T11:43:17.413Z,8.23
2019-05-10T11:45:45.925Z,9.28
2019-05-10T11:48:15.233Z,8.40
2019-05-10T11:50:44.514Z,6.17
2019-05-10T11:53:32.902Z,7.30
2019-05-10T11:56:02.488Z,6.73
2019-05-10T12:01:16.364Z,7.28
2019-05-10T12:03:35.257Z,6.08
2019-05-10T12:06:08.820Z,9.38
2019-05-10T12:08:35.549Z,7.50
2019-05-10T12:11:15.695Z,9.98
2019-05-10T12:13:35.825Z,8.75
2019-05-10T12:16:05.225Z,9.80
2019-05-10T12:18:36.304Z,8.15
2019-05-10T12:21:24.543Z,8.28
2019-05-10T12:23:56.320Z,10.48
2019-05-10T12:25:59.518Z,7.95
2019-05-10T12:29:02.702Z,14.15
2019-05-10T12:31:26.925Z,14.03
2019-05-10T12:34:02.440Z,15.10
2019-05-10T12:36:27.756Z,14.87
2019-05-10T12:38:58.965Z,15.83
2019-05-10T12:41:31.459Z,13.55
2019-05-10T12:44:04.179Z,15.03
2019-05-10T12:46:31.428Z,13.95
2019-05-10T12:49:02.097Z,15.08
2019-05-10T12:54:12.929Z,11.83
2019-05-10T12:56:44.204Z,13.18
2019-05-10T12:59:13.293Z,13.72
2019-05-10T13:02:04.378Z,12.43
2019-05-10T13:04:40.498Z,12.30
2019-05-10T13:10:02.010Z,13.62
2019-05-10T13:12:22.948Z,14.15
2019-05-10T13:14:53.856Z,13.30
2019-05-10T13:17:23.150Z,13.73
2019-05-10T13:19:57.827Z,15.47
2019-05-10T13:22:42.569Z,15.30
2019-05-10T13:28:20.480Z,16.12
2019-05-10T13:30:50.078Z,15.93
2019-05-10T13:33:28.659Z,13.00
2019-05-10T13:35:55.800Z,10.58
2019-05-10T13:38:21.388Z,11.28
2019-05-10T13:40:50.708Z,7.12
2019-05-10T13:43:26.496Z,6.47
2019-05-10T13:45:51.020Z,6.10
2019-05-10T13:48:20.374Z,9.75
2019-05-10T13:50:49.670Z,11.88
2019-05-10T13:53:20.786Z,7.65
2019-05-10T13:55:50.083Z,13.58
2019-05-10T13:58:19.378Z,10.87
2019-05-10T14:00:48.695Z,11.75
2019-05-10T14:03:18.026Z,6.75
2019-05-10T14:05:47.416Z,7.58
2019-05-10T14:08:16.717Z,10.60
2019-05-10T14:13:35.586Z,6.00
2019-05-10T14:16:24.622Z,5.92
2019-05-10T14:18:53.893Z,6.75
2019-05-10T14:24:15.201Z,8.50
2019-05-10T14:26:42.572Z,8.75
2019-05-10T14:29:11.958Z,10.08
2019-05-10T14:31:41.277Z,5.22
2019-05-10T14:34:15.109Z,6.25
2019-05-10T14:37:00.463Z,7.90
2019-05-10T14:39:29.755Z,6.03
2019-05-10T14:42:02.138Z,7.20
2019-05-10T14:44:50.399Z,6.10
2019-05-10T14:47:19.770Z,6.20
2019-05-10T14:49:49.119Z,4.78
2019-05-10T14:52:18.525Z,4.42
2019-05-10T14:54:55.523Z,5.67
2019-05-10T14:57:21.839Z,6.75
2019-05-10T15:02:26.599Z,3.98
2019-05-10T15:04:56.031Z,5.17
2019-05-10T15:07:25.491Z,6.97
2019-05-10T15:10:00.275Z,6.22
2019-05-10T15:12:25.830Z,6.47
2019-05-10T15:14:55.241Z,5.80
2019-05-10T15:17:24.594Z,5.47
2019-05-10T15:19:59.906Z,10.15
2019-05-10T15:22:25.042Z,6.45
2019-05-10T15:24:54.384Z,4.90
2019-05-10T15:27:24.112Z,7.62
2019-05-10T15:29:58.749Z,4.97
2019-05-10T15:32:36.764Z,6.50
2019-05-10T15:35:08.472Z,5.75
2019-05-10T15:37:40.724Z,2.57
2019-05-10T15:43:16.450Z,7.13
2019-05-10T15:46:00.132Z,5.73
2019-05-10T15:48:29.591Z,3.53
2019-05-10T15:50:58.879Z,2.57
2019-05-10T15:53:28.223Z,2.63
2019-05-10T15:55:58.932Z,4.93
2019-05-10T15:58:30.560Z,1.10
2019-05-10T16:00:59.563Z,1.70
2019-05-10T16:03:28.956Z,1.50
2019-05-10T16:06:00.721Z,2.97
2019-05-10T16:08:30.306Z,1.37
2019-05-10T16:11:00.346Z,3.40
2019-05-10T16:13:29.674Z,2.27
2019-05-10T16:15:59.566Z,2.03
2019-05-10T16:18:33.508Z,1.03
2019-05-10T16:21:01.107Z,2.00
2019-05-10T16:23:30.393Z,1.53
2019-05-10T16:25:59.685Z,2.93
2019-05-10T16:28:28.953Z,2.40
2019-05-10T16:33:48.225Z,1.20
2019-05-10T16:36:17.572Z,1.30
2019-05-10T16:38:46.885Z,4.30
2019-05-10T16:41:16.223Z,2.40
2019-05-10T16:43:45.594Z,2.33
2019-05-10T16:46:14.967Z,2.87
2019-05-10T16:48:44.289Z,0.93
2019-05-10T16:51:13.617Z,3.57
2019-05-10T16:53:45.824Z,1.17
2019-05-10T16:56:18.998Z,3.80
2019-05-10T16:58:47.586Z,2.23
2019-05-10T17:01:18.651Z,1.67
2019-05-10T17:03:51.290Z,3.90
2019-05-10T17:06:18.311Z,0.87
2019-05-10T17:08:47.667Z,4.33
2019-05-10T17:14:05.256Z,3.70
2019-05-10T17:16:34.593Z,3.77
2019-05-10T17:19:03.981Z,2.20
2019-05-10T17:21:33.347Z,2.77
2019-05-10T17:24:02.747Z,4.33
2019-05-10T17:26:32.916Z,2.30
2019-05-10T17:29:07.144Z,3.57
2019-05-10T17:31:34.310Z,6.43
2019-05-10T17:36:38.891Z,3.70
2019-05-10T17:39:08.249Z,4.23
2019-05-10T17:41:37.545Z,5.10
2019-05-10T17:44:06.840Z,3.00
2019-05-10T17:46:36.204Z,4.30
2019-05-10T17:49:05.480Z,6.47
2019-05-10T17:51:34.779Z,4.60
2019-05-10T17:54:04.086Z,2.37
2019-05-10T17:56:38.821Z,6.20
2019-05-10T17:59:05.782Z,8.17
2019-05-10T18:01:37.626Z,3.80
2019-05-10T18:04:07.367Z,5.47
2019-05-10T18:09:25.015Z,5.30
2019-05-10T18:11:54.304Z,3.63
2019-05-10T18:14:23.587Z,4.17
2019-05-10T18:16:52.928Z,7.00
2019-05-10T18:19:24.539Z,6.77
2019-05-10T18:21:54.780Z,6.60
2019-05-10T18:24:24.324Z,3.17
2019-05-10T18:26:53.609Z,4.17
2019-05-10T18:29:22.897Z,5.17
2019-05-10T18:31:55.946Z,8.37
2019-05-10T18:34:26.440Z,4.23
2019-05-10T18:36:54.422Z,5.93
2019-05-10T18:39:47.364Z,2.17
2019-05-10T18:42:18.907Z,1.87
2019-05-10T18:44:45.751Z,6.77
2019-05-10T18:47:15.866Z,3.70
2019-05-10T18:49:45.181Z,3.33
2019-05-10T18:52:14.458Z,3.73
2019-05-10T18:54:43.765Z,4.30
2019-05-10T18:57:18.805Z,3.40
2019-05-10T18:59:45.559Z,4.70
2019-05-10T19:02:17.984Z,2.63
2019-05-10T19:04:52.049Z,4.00
2019-05-10T19:07:17.119Z,3.93
2019-05-10T19:09:46.410Z,3.73
2019-05-10T19:12:18.732Z,2.47
2019-05-10T19:14:46.786Z,1.27
2019-05-10T19:17:16.168Z,3.30
2019-05-10T19:19:45.456Z,8.80
2019-05-10T19:22:14.749Z,5.67
2019-05-10T19:24:44.041Z,6.87
2019-05-10T19:27:13.340Z,2.47
2019-05-10T19:30:01.560Z,6.33
2019-05-10T19:32:30.819Z,4.43
2019-05-10T19:35:00.098Z,4.00
2019-05-10T19:37:34.105Z,2.93
2019-05-10T19:40:00.391Z,3.63
2019-05-10T19:42:31.675Z,4.90
2019-05-10T19:45:00.707Z,3.73
2019-05-10T19:47:30.011Z,3.67
2019-05-10T19:49:59.333Z,6.23
2019-05-10T19:52:28.623Z,5.77
2019-05-10T19:54:57.931Z,7.83
2019-05-10T19:57:27.210Z,5.07
2019-05-10T19:59:56.516Z,5.33
2019-05-10T20:02:25.806Z,2.83
2019-05-10T20:04:55.091Z,3.20
2019-05-10T20:07:24.405Z,5.30
2019-05-10T20:09:53.689Z,6.57
2019-05-10T20:12:22.995Z,5.87
2019-05-10T20:14:52.281Z,5.80
2019-05-10T20:17:22.054Z,5.33
2019-05-10T20:19:52.601Z,10.03
2019-05-10T20:22:21.876Z,5.80
2019-05-10T20:24:51.262Z,4.77
2019-05-10T20:30:48.115Z,3.63
2019-05-10T20:33:17.399Z,7.57
2019-05-10T20:35:46.698Z,7.07
2019-05-10T20:38:15.990Z,4.80
2019-05-10T20:41:04.323Z,4.63
2019-05-10T20:43:33.588Z,4.50
2019-05-10T20:46:02.953Z,7.40
2019-05-10T20:48:32.249Z,7.73
2019-05-10T20:51:01.522Z,4.60
2019-05-10T20:53:30.857Z,4.23
2019-05-10T20:56:00.123Z,7.10
2019-05-10T20:58:29.405Z,5.50
2019-05-10T21:00:58.690Z,4.13
2019-05-10T21:03:39.288Z,6.33
2019-05-10T21:08:56.827Z,3.53
2019-05-10T21:11:45.002Z,2.03
2019-05-10T21:14:14.303Z,4.27
2019-05-10T21:16:43.663Z,2.13
2019-05-10T21:19:12.965Z,7.27
2019-05-10T21:21:44.742Z,9.70
2019-05-10T21:24:14.017Z,5.00
2019-05-10T21:26:43.310Z,7.33
2019-05-10T21:29:12.582Z,3.57
2019-05-10T21:31:41.892Z,5.67
2019-05-10T21:34:11.181Z,4.97
2019-05-10T21:36:40.446Z,5.70
2019-05-10T21:39:09.823Z,8.87
2019-05-10T21:41:39.039Z,9.23
2019-05-10T21:44:08.326Z,13.47
2019-05-10T21:46:37.612Z,9.13
2019-05-10T21:49:06.891Z,6.50
2019-05-10T21:54:11.018Z,4.37
2019-05-10T21:56:40.320Z,6.53
2019-05-10T22:01:57.920Z,7.33
2019-05-10T22:04:27.210Z,12.43
2019-05-10T22:07:15.442Z,5.27
2019-05-10T22:09:44.743Z,11.53
2019-05-10T22:12:14.017Z,6.03
2019-05-10T22:14:43.313Z,6.50
2019-05-10T22:17:15.077Z,7.53
2019-05-10T22:19:44.367Z,7.27
2019-05-10T22:22:13.831Z,6.20
2019-05-10T22:24:43.095Z,8.07
2019-05-10T22:27:12.396Z,7.03
2019-05-10T22:29:41.684Z,9.50
2019-05-10T22:32:10.944Z,7.83
2019-05-10T22:34:40.242Z,5.03
2019-05-10T22:37:09.518Z,5.90
2019-05-10T22:39:38.884Z,3.90
2019-05-10T22:42:08.173Z,5.73
2019-05-10T22:44:37.479Z,13.17
2019-05-10T22:47:06.755Z,8.70
2019-05-10T22:49:36.195Z,8.27
2019-05-10T22:52:05.498Z,6.97
2019-05-10T22:54:34.808Z,8.77
2019-05-10T22:57:04.100Z,13.10
2019-05-10T22:59:33.372Z,7.70
2019-05-10T23:02:02.662Z,10.27
2019-05-10T23:04:31.933Z,7.30
2019-05-10T23:07:01.235Z,4.20
2019-05-10T23:09:30.521Z,6.47
2019-05-10T23:11:59.792Z,9.93
2019-05-10T23:14:29.073Z,8.40
2019-05-10T23:16:58.344Z,9.97
2019-05-10T23:19:46.697Z,9.23
2019-05-10T23:22:15.969Z,10.13
2019-05-10T23:24:45.294Z,13.07
2019-05-10T23:29:49.709Z,10.03
2019-05-10T23:32:19.023Z,5.53
2019-05-10T23:34:48.345Z,10.87
2019-05-10T23:37:17.653Z,9.80
2019-05-10T23:39:46.962Z,9.80
2019-05-10T23:42:16.241Z,14.60
2019-05-10T23:45:04.891Z,7.77
2019-05-10T23:47:34.174Z,7.23
2019-05-10T23:53:17.364Z,12.87
2019-05-10T23:55:58.030Z,11.10
2019-05-10T23:58:27.326Z,10.47
